sensor_id;sensor_type;location;lat;lon;timestamp;temperature;humidity
40287;DHT22;25998;46.604;13.610;2023-03-01T00:00:03;1.60;99.90
40287;DHT22;25998;46.604;13.610;2023-03-01T00:03:14;1.70;99.90
40287;DHT22;25998;46.604;13.610;2023-03-01T00:06:31;1.70;99.90
40287;DHT22;25998;46.604;13.610;2023-03-01T00:09:42;1.70;99.90
40287;DHT22;25998;46.604;13.610;2023-03-01T00:12:56;1.60;99.90
40287;DHT22;25998;46.604;13.610;2023-03-01T00:16:10;1.50;99.90
40287;DHT22;25998;46.604;13.610;2023-03-01T00:19:21;1.50;99.90
40287;DHT22;25998;46.604;13.610;2023-03-01T00:22:32;1.40;99.90
40287;DHT22;25998;46.604;13.610;2023-03-01T00:25:43;1.50;99.90
40287;DHT22;25998;46.604;13.610;2023-03-01T00:28:58;1.50;99.90
40287;DHT22;25998;46.604;13.610;2023-03-01T00:32:09;1.50;99.90
40287;DHT22;25998;46.604;13.610;2023-03-01T00:35:20;1.60;99.90
40287;DHT22;25998;46.604;13.610;2023-03-01T00:38:37;1.60;99.90
40287;DHT22;25998;46.604;13.610;2023-03-01T00:41:51;1.60;99.90
40287;DHT22;25998;46.604;13.610;2023-03-01T00:45:02;1.50;99.90
40287;DHT22;25998;46.604;13.610;2023-03-01T00:48:13;1.60;99.90
40287;DHT22;25998;46.604;13.610;2023-03-01T00:51:28;1.60;99.90
40287;DHT22;25998;46.604;13.610;2023-03-01T00:54:39;1.40;99.90
40287;DHT22;25998;46.604;13.610;2023-03-01T00:57:52;1.30;99.90
40287;DHT22;25998;46.604;13.610;2023-03-01T01:01:13;1.30;99.90
40287;DHT22;25998;46.604;13.610;2023-03-01T01:04:27;1.20;99.90
40287;DHT22;25998;46.604;13.610;2023-03-01T01:07:38;1.20;99.90
40287;DHT22;25998;46.604;13.610;2023-03-01T01:10:49;1.50;99.90
40287;DHT22;25998;46.604;13.610;2023-03-01T01:14:00;1.50;99.90
40287;DHT22;25998;46.604;13.610;2023-03-01T01:17:11;1.60;99.90
40287;DHT22;25998;46.604;13.610;2023-03-01T01:20:25;1.60;99.90
40287;DHT22;25998;46.604;13.610;2023-03-01T01:23:36;1.60;99.90
40287;DHT22;25998;46.604;13.610;2023-03-01T01:26:47;1.60;99.90
40287;DHT22;25998;46.604;13.610;2023-03-01T01:30:02;1.50;99.90
40287;DHT22;25998;46.604;13.610;2023-03-01T01:33:13;1.40;99.90
40287;DHT22;25998;46.604;13.610;2023-03-01T01:36:24;1.40;99.90
40287;DHT22;25998;46.604;13.610;2023-03-01T01:39:35;1.40;99.90
40287;DHT22;25998;46.604;13.610;2023-03-01T01:42:46;1.50;99.90
40287;DHT22;25998;46.604;13.610;2023-03-01T01:46:03;1.40;99.90
40287;DHT22;25998;46.604;13.610;2023-03-01T01:49:37;1.40;99.90
40287;DHT22;25998;46.604;13.610;2023-03-01T01:52:50;1.30;99.90
40287;DHT22;25998;46.604;13.610;2023-03-01T01:56:03;1.30;99.90
40287;DHT22;25998;46.604;13.610;2023-03-01T01:59:14;1.20;99.90
40287;DHT22;25998;46.604;13.610;2023-03-01T02:02:26;1.20;99.90
40287;DHT22;25998;46.604;13.610;2023-03-01T02:09:11;1.20;99.90
40287;DHT22;25998;46.604;13.610;2023-03-01T02:12:24;1.20;99.90
40287;DHT22;25998;46.604;13.610;2023-03-01T02:15:36;1.20;99.90
40287;DHT22;25998;46.604;13.610;2023-03-01T02:18:48;1.20;99.90
40287;DHT22;25998;46.604;13.610;2023-03-01T02:22:13;1.20;99.90
40287;DHT22;25998;46.604;13.610;2023-03-01T02:25:42;1.40;99.90
40287;DHT22;25998;46.604;13.610;2023-03-01T02:28:56;1.60;99.90
40287;DHT22;25998;46.604;13.610;2023-03-01T02:32:07;1.50;99.90
40287;DHT22;25998;46.604;13.610;2023-03-01T02:35:19;1.30;99.90
40287;DHT22;25998;46.604;13.610;2023-03-01T02:38:31;1.20;99.90
40287;DHT22;25998;46.604;13.610;2023-03-01T02:41:46;1.20;99.90
40287;DHT22;25998;46.604;13.610;2023-03-01T02:45:00;1.40;99.90
40287;DHT22;25998;46.604;13.610;2023-03-01T02:48:11;1.50;99.90
40287;DHT22;25998;46.604;13.610;2023-03-01T02:55:09;1.50;99.90
40287;DHT22;25998;46.604;13.610;2023-03-01T02:58:21;1.40;99.90
40287;DHT22;25998;46.604;13.610;2023-03-01T03:01:35;1.30;99.90
40287;DHT22;25998;46.604;13.610;2023-03-01T03:04:48;1.30;99.90
40287;DHT22;25998;46.604;13.610;2023-03-01T03:08:01;1.50;99.90
40287;DHT22;25998;46.604;13.610;2023-03-01T03:11:13;1.40;99.90
40287;DHT22;25998;46.604;13.610;2023-03-01T03:14:24;1.30;99.90
40287;DHT22;25998;46.604;13.610;2023-03-01T03:17:38;1.40;99.90
40287;DHT22;25998;46.604;13.610;2023-03-01T03:20:50;1.30;99.90
40287;DHT22;25998;46.604;13.610;2023-03-01T03:24:03;1.40;99.90
40287;DHT22;25998;46.604;13.610;2023-03-01T03:27:16;1.50;99.90
40287;DHT22;25998;46.604;13.610;2023-03-01T03:30:30;1.50;99.90
40287;DHT22;25998;46.604;13.610;2023-03-01T03:33:41;1.40;99.90
40287;DHT22;25998;46.604;13.610;2023-03-01T03:36:57;1.20;99.90
40287;DHT22;25998;46.604;13.610;2023-03-01T03:40:10;1.30;99.90
40287;DHT22;25998;46.604;13.610;2023-03-01T03:43:25;1.20;99.90
40287;DHT22;25998;46.604;13.610;2023-03-01T03:46:36;1.30;99.90
40287;DHT22;25998;46.604;13.610;2023-03-01T03:49:47;1.20;99.90
40287;DHT22;25998;46.604;13.610;2023-03-01T03:53:01;1.30;99.90
40287;DHT22;25998;46.604;13.610;2023-03-01T03:56:15;1.50;99.90
40287;DHT22;25998;46.604;13.610;2023-03-01T03:59:26;1.40;99.90
40287;DHT22;25998;46.604;13.610;2023-03-01T04:02:37;1.40;99.90
40287;DHT22;25998;46.604;13.610;2023-03-01T04:05:52;1.50;99.90
40287;DHT22;25998;46.604;13.610;2023-03-01T04:09:03;1.60;99.90
40287;DHT22;25998;46.604;13.610;2023-03-01T04:12:13;1.60;99.90
40287;DHT22;25998;46.604;13.610;2023-03-01T04:15:26;1.40;99.90
40287;DHT22;25998;46.604;13.610;2023-03-01T04:18:37;1.30;99.90
40287;DHT22;25998;46.604;13.610;2023-03-01T04:21:48;1.40;99.90
40287;DHT22;25998;46.604;13.610;2023-03-01T04:24:59;1.40;99.90
40287;DHT22;25998;46.604;13.610;2023-03-01T04:28:16;1.40;99.90
40287;DHT22;25998;46.604;13.610;2023-03-01T04:31:27;1.30;99.90
40287;DHT22;25998;46.604;13.610;2023-03-01T04:34:38;1.30;99.90
40287;DHT22;25998;46.604;13.610;2023-03-01T04:37:49;1.40;99.90
40287;DHT22;25998;46.604;13.610;2023-03-01T04:41:08;1.50;99.90
40287;DHT22;25998;46.604;13.610;2023-03-01T04:44:20;1.60;99.90
40287;DHT22;25998;46.604;13.610;2023-03-01T04:47:31;1.40;99.90
40287;DHT22;25998;46.604;13.610;2023-03-01T04:50:41;1.30;99.90
40287;DHT22;25998;46.604;13.610;2023-03-01T04:53:52;1.30;99.90
40287;DHT22;25998;46.604;13.610;2023-03-01T04:57:05;1.30;99.90
40287;DHT22;25998;46.604;13.610;2023-03-01T05:00:19;1.40;99.90
40287;DHT22;25998;46.604;13.610;2023-03-01T05:03:30;1.30;99.90
40287;DHT22;25998;46.604;13.610;2023-03-01T05:06:41;1.30;99.90
40287;DHT22;25998;46.604;13.610;2023-03-01T05:09:55;1.20;99.90
40287;DHT22;25998;46.604;13.610;2023-03-01T05:13:07;1.30;99.90
40287;DHT22;25998;46.604;13.610;2023-03-01T05:16:23;1.40;99.90
40287;DHT22;25998;46.604;13.610;2023-03-01T05:19:34;1.30;99.90
40287;DHT22;25998;46.604;13.610;2023-03-01T05:22:45;1.20;99.90
40287;DHT22;25998;46.604;13.610;2023-03-01T05:26:03;1.20;99.90
40287;DHT22;25998;46.604;13.610;2023-03-01T05:29:17;1.10;99.90
40287;DHT22;25998;46.604;13.610;2023-03-01T05:32:29;1.10;99.90
40287;DHT22;25998;46.604;13.610;2023-03-01T05:35:43;1.10;99.90
40287;DHT22;25998;46.604;13.610;2023-03-01T05:38:55;1.30;99.90
40287;DHT22;25998;46.604;13.610;2023-03-01T05:42:06;1.30;99.90
40287;DHT22;25998;46.604;13.610;2023-03-01T05:45:19;1.20;99.90
40287;DHT22;25998;46.604;13.610;2023-03-01T05:48:30;1.20;99.90
40287;DHT22;25998;46.604;13.610;2023-03-01T05:51:47;1.20;99.90
40287;DHT22;25998;46.604;13.610;2023-03-01T05:54:58;1.20;99.90
40287;DHT22;25998;46.604;13.610;2023-03-01T05:58:14;1.20;99.90
40287;DHT22;25998;46.604;13.610;2023-03-01T06:01:25;1.30;99.90
40287;DHT22;25998;46.604;13.610;2023-03-01T06:04:36;1.40;99.90
40287;DHT22;25998;46.604;13.610;2023-03-01T06:07:47;1.50;99.90
40287;DHT22;25998;46.604;13.610;2023-03-01T06:10:58;1.40;99.90
40287;DHT22;25998;46.604;13.610;2023-03-01T06:14:09;1.30;99.90
40287;DHT22;25998;46.604;13.610;2023-03-01T06:17:21;1.30;99.90
40287;DHT22;25998;46.604;13.610;2023-03-01T06:20:31;1.20;99.90
40287;DHT22;25998;46.604;13.610;2023-03-01T06:23:42;1.20;99.90
40287;DHT22;25998;46.604;13.610;2023-03-01T06:26:53;1.30;99.90
40287;DHT22;25998;46.604;13.610;2023-03-01T06:30:04;1.30;99.90
40287;DHT22;25998;46.604;13.610;2023-03-01T06:33:15;1.30;99.90
40287;DHT22;25998;46.604;13.610;2023-03-01T06:36:26;1.20;99.90
40287;DHT22;25998;46.604;13.610;2023-03-01T06:39:37;1.30;99.90
40287;DHT22;25998;46.604;13.610;2023-03-01T06:42:49;1.30;99.90
40287;DHT22;25998;46.604;13.610;2023-03-01T06:46:02;1.40;99.90
40287;DHT22;25998;46.604;13.610;2023-03-01T06:49:13;1.30;99.90
40287;DHT22;25998;46.604;13.610;2023-03-01T06:52:26;1.20;99.90
40287;DHT22;25998;46.604;13.610;2023-03-01T06:55:37;1.20;99.90
40287;DHT22;25998;46.604;13.610;2023-03-01T06:58:48;1.10;99.90
40287;DHT22;25998;46.604;13.610;2023-03-01T07:01:59;1.10;99.90
40287;DHT22;25998;46.604;13.610;2023-03-01T07:05:10;1.00;99.90
40287;DHT22;25998;46.604;13.610;2023-03-01T07:08:20;1.10;99.90
40287;DHT22;25998;46.604;13.610;2023-03-01T07:11:31;1.10;99.90
40287;DHT22;25998;46.604;13.610;2023-03-01T07:14:44;1.10;99.90
40287;DHT22;25998;46.604;13.610;2023-03-01T07:17:56;1.40;99.90
40287;DHT22;25998;46.604;13.610;2023-03-01T07:21:13;1.40;99.90
40287;DHT22;25998;46.604;13.610;2023-03-01T07:24:24;1.30;99.90
40287;DHT22;25998;46.604;13.610;2023-03-01T07:27:34;1.30;99.90
40287;DHT22;25998;46.604;13.610;2023-03-01T07:30:45;1.20;99.90
40287;DHT22;25998;46.604;13.610;2023-03-01T07:33:56;1.20;99.90
40287;DHT22;25998;46.604;13.610;2023-03-01T07:37:07;1.30;99.90
40287;DHT22;25998;46.604;13.610;2023-03-01T07:40:18;1.50;99.90
40287;DHT22;25998;46.604;13.610;2023-03-01T07:43:30;1.40;99.90
40287;DHT22;25998;46.604;13.610;2023-03-01T07:46:41;1.50;99.90
40287;DHT22;25998;46.604;13.610;2023-03-01T07:49:51;1.40;99.90
40287;DHT22;25998;46.604;13.610;2023-03-01T07:53:02;1.40;99.90
40287;DHT22;25998;46.604;13.610;2023-03-01T07:56:14;1.50;99.90
40287;DHT22;25998;46.604;13.610;2023-03-01T07:59:28;1.50;99.90
40287;DHT22;25998;46.604;13.610;2023-03-01T08:02:40;1.50;99.90
40287;DHT22;25998;46.604;13.610;2023-03-01T08:05:52;1.50;99.90
40287;DHT22;25998;46.604;13.610;2023-03-01T08:09:03;1.50;99.90
40287;DHT22;25998;46.604;13.610;2023-03-01T08:12:13;1.40;99.90
40287;DHT22;25998;46.604;13.610;2023-03-01T08:15:26;1.40;99.90
40287;DHT22;25998;46.604;13.610;2023-03-01T08:18:38;1.40;99.90
40287;DHT22;25998;46.604;13.610;2023-03-01T08:21:49;1.50;99.90
40287;DHT22;25998;46.604;13.610;2023-03-01T08:25:00;1.50;99.90
40287;DHT22;25998;46.604;13.610;2023-03-01T08:28:11;1.50;99.90
40287;DHT22;25998;46.604;13.610;2023-03-01T08:31:31;1.20;99.90
40287;DHT22;25998;46.604;13.610;2023-03-01T08:34:42;1.30;99.90
40287;DHT22;25998;46.604;13.610;2023-03-01T08:37:53;1.40;99.90
40287;DHT22;25998;46.604;13.610;2023-03-01T08:41:03;1.50;99.90
40287;DHT22;25998;46.604;13.610;2023-03-01T08:44:15;1.40;99.90
40287;DHT22;25998;46.604;13.610;2023-03-01T08:47:27;1.50;99.90
40287;DHT22;25998;46.604;13.610;2023-03-01T08:50:37;1.40;99.90
40287;DHT22;25998;46.604;13.610;2023-03-01T08:53:48;1.30;99.90
40287;DHT22;25998;46.604;13.610;2023-03-01T08:57:02;1.20;99.90
40287;DHT22;25998;46.604;13.610;2023-03-01T09:00:13;1.30;99.90
40287;DHT22;25998;46.604;13.610;2023-03-01T09:03:25;1.20;99.90
40287;DHT22;25998;46.604;13.610;2023-03-01T09:06:37;1.10;99.90
40287;DHT22;25998;46.604;13.610;2023-03-01T09:09:47;1.20;99.90
40287;DHT22;25998;46.604;13.610;2023-03-01T09:12:58;1.30;99.90
40287;DHT22;25998;46.604;13.610;2023-03-01T09:16:11;1.30;99.90
40287;DHT22;25998;46.604;13.610;2023-03-01T09:19:22;1.40;99.90
40287;DHT22;25998;46.604;13.610;2023-03-01T09:22:35;1.30;99.90
40287;DHT22;25998;46.604;13.610;2023-03-01T09:25:46;1.30;99.90
40287;DHT22;25998;46.604;13.610;2023-03-01T09:28:57;1.30;99.90
40287;DHT22;25998;46.604;13.610;2023-03-01T09:32:08;1.30;99.90
40287;DHT22;25998;46.604;13.610;2023-03-01T09:35:19;1.30;99.90
40287;DHT22;25998;46.604;13.610;2023-03-01T09:38:31;1.30;99.90
40287;DHT22;25998;46.604;13.610;2023-03-01T09:41:46;1.50;99.90
40287;DHT22;25998;46.604;13.610;2023-03-01T09:45:06;1.70;99.90
40287;DHT22;25998;46.604;13.610;2023-03-01T09:48:19;1.70;99.90
40287;DHT22;25998;46.604;13.610;2023-03-01T09:51:34;1.70;99.90
40287;DHT22;25998;46.604;13.610;2023-03-01T09:54:46;1.80;99.90
40287;DHT22;25998;46.604;13.610;2023-03-01T09:58:25;1.80;99.90
40287;DHT22;25998;46.604;13.610;2023-03-01T10:04:50;1.60;99.90
40287;DHT22;25998;46.604;13.610;2023-03-01T10:11:43;1.70;99.90
40287;DHT22;25998;46.604;13.610;2023-03-01T10:18:26;1.80;99.90
40287;DHT22;25998;46.604;13.610;2023-03-01T10:21:44;1.90;99.90
40287;DHT22;25998;46.604;13.610;2023-03-01T10:24:59;1.90;99.90
40287;DHT22;25998;46.604;13.610;2023-03-01T10:28:20;1.90;99.90
40287;DHT22;25998;46.604;13.610;2023-03-01T10:31:55;1.90;99.90
40287;DHT22;25998;46.604;13.610;2023-03-01T10:38:31;2.00;99.90
40287;DHT22;25998;46.604;13.610;2023-03-01T10:48:29;1.80;99.90
40287;DHT22;25998;46.604;13.610;2023-03-01T10:51:43;1.90;99.90
40287;DHT22;25998;46.604;13.610;2023-03-01T10:55:01;2.00;99.90
40287;DHT22;25998;46.604;13.610;2023-03-01T10:58:19;2.20;99.90
40287;DHT22;25998;46.604;13.610;2023-03-01T11:01:30;2.40;99.90
40287;DHT22;25998;46.604;13.610;2023-03-01T11:08:37;2.50;99.90
40287;DHT22;25998;46.604;13.610;2023-03-01T11:11:57;2.60;99.90
40287;DHT22;25998;46.604;13.610;2023-03-01T11:15:22;2.30;99.90
40287;DHT22;25998;46.604;13.610;2023-03-01T11:18:34;2.30;99.90
40287;DHT22;25998;46.604;13.610;2023-03-01T11:25:02;2.30;99.90
40287;DHT22;25998;46.604;13.610;2023-03-01T11:28:16;2.40;99.90
40287;DHT22;25998;46.604;13.610;2023-03-01T11:31:28;2.50;99.90
40287;DHT22;25998;46.604;13.610;2023-03-01T11:34:51;2.30;99.90
40287;DHT22;25998;46.604;13.610;2023-03-01T11:41:31;2.20;99.90
40287;DHT22;25998;46.604;13.610;2023-03-01T11:44:43;2.30;99.90
40287;DHT22;25998;46.604;13.610;2023-03-01T11:59:13;2.60;99.90
40287;DHT22;25998;46.604;13.610;2023-03-01T12:02:40;2.60;99.90
40287;DHT22;25998;46.604;13.610;2023-03-01T12:20:09;2.90;99.90
40287;DHT22;25998;46.604;13.610;2023-03-01T12:23:46;2.90;99.90
40287;DHT22;25998;46.604;13.610;2023-03-01T12:34:42;3.00;99.90
40287;DHT22;25998;46.604;13.610;2023-03-01T12:45:12;3.10;99.90
40287;DHT22;25998;46.604;13.610;2023-03-01T12:55:36;3.20;99.90
40287;DHT22;25998;46.604;13.610;2023-03-01T13:02:26;2.90;99.90
40287;DHT22;25998;46.604;13.610;2023-03-01T13:06:20;2.70;99.90
40287;DHT22;25998;46.604;13.610;2023-03-01T13:10:15;2.70;99.90
40287;DHT22;25998;46.604;13.610;2023-03-01T13:13:26;2.80;99.90
40287;DHT22;25998;46.604;13.610;2023-03-01T13:16:40;2.90;99.90
40287;DHT22;25998;46.604;13.610;2023-03-01T13:19:57;3.00;99.90
40287;DHT22;25998;46.604;13.610;2023-03-01T13:27:08;2.90;99.90
40287;DHT22;25998;46.604;13.610;2023-03-01T13:30:46;2.70;99.90
40287;DHT22;25998;46.604;13.610;2023-03-01T13:33:58;2.80;99.90
40287;DHT22;25998;46.604;13.610;2023-03-01T13:37:18;2.90;99.90
40287;DHT22;25998;46.604;13.610;2023-03-01T13:43:44;3.10;99.90
40287;DHT22;25998;46.604;13.610;2023-03-01T13:47:02;3.20;99.90
40287;DHT22;25998;46.604;13.610;2023-03-01T13:50:21;3.00;99.90
40287;DHT22;25998;46.604;13.610;2023-03-01T13:53:43;3.10;99.90
40287;DHT22;25998;46.604;13.610;2023-03-01T13:56:54;3.20;99.90
40287;DHT22;25998;46.604;13.610;2023-03-01T14:00:26;3.10;99.90
40287;DHT22;25998;46.604;13.610;2023-03-01T14:03:41;3.10;99.90
40287;DHT22;25998;46.604;13.610;2023-03-01T14:10:35;2.90;99.90
40287;DHT22;25998;46.604;13.610;2023-03-01T14:20:44;3.00;99.90
40287;DHT22;25998;46.604;13.610;2023-03-01T14:24:01;3.10;99.90
40287;DHT22;25998;46.604;13.610;2023-03-01T14:27:13;3.00;99.90
40287;DHT22;25998;46.604;13.610;2023-03-01T14:30:27;2.90;99.90
40287;DHT22;25998;46.604;13.610;2023-03-01T14:33:41;3.00;99.90
40287;DHT22;25998;46.604;13.610;2023-03-01T14:36:52;2.90;99.90
40287;DHT22;25998;46.604;13.610;2023-03-01T14:40:04;2.90;99.90
40287;DHT22;25998;46.604;13.610;2023-03-01T14:43:20;2.80;99.90
40287;DHT22;25998;46.604;13.610;2023-03-01T14:46:41;2.90;99.90
40287;DHT22;25998;46.604;13.610;2023-03-01T14:49:58;3.00;99.90
40287;DHT22;25998;46.604;13.610;2023-03-01T14:56:27;2.90;99.90
40287;DHT22;25998;46.604;13.610;2023-03-01T15:00:01;2.90;99.90
40287;DHT22;25998;46.604;13.610;2023-03-01T15:06:43;2.70;99.90
40287;DHT22;25998;46.604;13.610;2023-03-01T15:09:54;2.50;99.90
40287;DHT22;25998;46.604;13.610;2023-03-01T15:13:13;2.40;99.90
40287;DHT22;25998;46.604;13.610;2023-03-01T15:16:26;2.40;99.90
40287;DHT22;25998;46.604;13.610;2023-03-01T15:19:38;2.50;99.90
40287;DHT22;25998;46.604;13.610;2023-03-01T15:22:48;2.70;99.90
40287;DHT22;25998;46.604;13.610;2023-03-01T15:25:59;2.60;99.90
40287;DHT22;25998;46.604;13.610;2023-03-01T15:29:17;2.80;99.90
40287;DHT22;25998;46.604;13.610;2023-03-01T15:32:33;2.80;99.90
40287;DHT22;25998;46.604;13.610;2023-03-01T15:35:46;2.80;99.90
40287;DHT22;25998;46.604;13.610;2023-03-01T15:38:59;2.90;99.90
40287;DHT22;25998;46.604;13.610;2023-03-01T15:45:39;2.90;99.90
40287;DHT22;25998;46.604;13.610;2023-03-01T15:48:53;2.90;99.90
40287;DHT22;25998;46.604;13.610;2023-03-01T15:52:23;2.80;99.90
40287;DHT22;25998;46.604;13.610;2023-03-01T15:55:40;2.70;99.90
40287;DHT22;25998;46.604;13.610;2023-03-01T15:58:58;2.60;99.90
40287;DHT22;25998;46.604;13.610;2023-03-01T16:02:13;2.60;99.90
40287;DHT22;25998;46.604;13.610;2023-03-01T16:05:27;2.60;99.90
40287;DHT22;25998;46.604;13.610;2023-03-01T16:08:38;2.80;99.90
40287;DHT22;25998;46.604;13.610;2023-03-01T16:11:50;2.70;99.90
40287;DHT22;25998;46.604;13.610;2023-03-01T16:15:01;2.80;99.90
40287;DHT22;25998;46.604;13.610;2023-03-01T16:18:13;2.70;99.90
40287;DHT22;25998;46.604;13.610;2023-03-01T16:21:25;2.60;99.90
40287;DHT22;25998;46.604;13.610;2023-03-01T16:24:36;2.60;99.90
40287;DHT22;25998;46.604;13.610;2023-03-01T16:27:48;2.60;99.90
40287;DHT22;25998;46.604;13.610;2023-03-01T16:31:00;2.60;99.90
40287;DHT22;25998;46.604;13.610;2023-03-01T16:34:11;2.60;99.90
40287;DHT22;25998;46.604;13.610;2023-03-01T16:37:22;2.50;99.90
40287;DHT22;25998;46.604;13.610;2023-03-01T16:40:33;2.40;99.90
40287;DHT22;25998;46.604;13.610;2023-03-01T16:43:44;2.40;99.90
40287;DHT22;25998;46.604;13.610;2023-03-01T16:46:57;2.40;99.90
40287;DHT22;25998;46.604;13.610;2023-03-01T16:50:08;2.50;99.90
40287;DHT22;25998;46.604;13.610;2023-03-01T16:53:19;2.30;99.90
40287;DHT22;25998;46.604;13.610;2023-03-01T16:56:30;2.30;99.90
40287;DHT22;25998;46.604;13.610;2023-03-01T16:59:44;2.40;99.90
40287;DHT22;25998;46.604;13.610;2023-03-01T17:02:56;2.40;99.90
40287;DHT22;25998;46.604;13.610;2023-03-01T17:06:09;2.50;99.90
40287;DHT22;25998;46.604;13.610;2023-03-01T17:09:20;2.50;99.90
40287;DHT22;25998;46.604;13.610;2023-03-01T17:12:32;2.40;99.90
40287;DHT22;25998;46.604;13.610;2023-03-01T17:15:46;2.40;99.90
40287;DHT22;25998;46.604;13.610;2023-03-01T17:18:56;2.40;99.90
40287;DHT22;25998;46.604;13.610;2023-03-01T17:22:11;2.50;99.90
40287;DHT22;25998;46.604;13.610;2023-03-01T17:25:27;2.40;99.90
40287;DHT22;25998;46.604;13.610;2023-03-01T17:28:38;2.30;99.90
40287;DHT22;25998;46.604;13.610;2023-03-01T17:31:49;2.40;99.90
40287;DHT22;25998;46.604;13.610;2023-03-01T17:35:00;2.30;99.90
40287;DHT22;25998;46.604;13.610;2023-03-01T17:38:12;2.30;99.90
40287;DHT22;25998;46.604;13.610;2023-03-01T17:41:23;2.40;99.90
40287;DHT22;25998;46.604;13.610;2023-03-01T17:44:37;2.40;99.90
40287;DHT22;25998;46.604;13.610;2023-03-01T17:47:48;2.30;99.90
40287;DHT22;25998;46.604;13.610;2023-03-01T17:50:59;2.30;99.90
40287;DHT22;25998;46.604;13.610;2023-03-01T17:54:16;2.50;99.90
40287;DHT22;25998;46.604;13.610;2023-03-01T17:57:27;2.50;99.90
40287;DHT22;25998;46.604;13.610;2023-03-01T18:00:38;2.40;99.90
40287;DHT22;25998;46.604;13.610;2023-03-01T18:03:54;2.50;99.90
40287;DHT22;25998;46.604;13.610;2023-03-01T18:07:05;2.40;99.90
40287;DHT22;25998;46.604;13.610;2023-03-01T18:10:17;2.30;99.90
40287;DHT22;25998;46.604;13.610;2023-03-01T18:13:28;2.40;99.90
40287;DHT22;25998;46.604;13.610;2023-03-01T18:16:39;2.40;99.90
40287;DHT22;25998;46.604;13.610;2023-03-01T18:19:50;2.50;99.90
40287;DHT22;25998;46.604;13.610;2023-03-01T18:23:00;2.40;99.90
40287;DHT22;25998;46.604;13.610;2023-03-01T18:26:12;2.40;99.90
40287;DHT22;25998;46.604;13.610;2023-03-01T18:29:26;2.20;99.90
40287;DHT22;25998;46.604;13.610;2023-03-01T18:32:38;2.20;99.90
40287;DHT22;25998;46.604;13.610;2023-03-01T18:35:52;2.30;99.90
40287;DHT22;25998;46.604;13.610;2023-03-01T18:39:05;2.50;99.90
40287;DHT22;25998;46.604;13.610;2023-03-01T18:42:16;2.40;99.90
40287;DHT22;25998;46.604;13.610;2023-03-01T18:45:30;2.30;99.90
40287;DHT22;25998;46.604;13.610;2023-03-01T18:48:41;2.20;99.90
40287;DHT22;25998;46.604;13.610;2023-03-01T18:51:55;2.30;99.90
40287;DHT22;25998;46.604;13.610;2023-03-01T18:55:06;2.50;99.90
40287;DHT22;25998;46.604;13.610;2023-03-01T18:58:17;2.60;99.90
40287;DHT22;25998;46.604;13.610;2023-03-01T19:01:29;2.50;99.90
40287;DHT22;25998;46.604;13.610;2023-03-01T19:04:41;2.60;99.90
40287;DHT22;25998;46.604;13.610;2023-03-01T19:07:52;2.40;99.90
40287;DHT22;25998;46.604;13.610;2023-03-01T19:11:05;2.30;99.90
40287;DHT22;25998;46.604;13.610;2023-03-01T19:14:16;2.20;99.90
40287;DHT22;25998;46.604;13.610;2023-03-01T19:17:27;2.30;99.90
40287;DHT22;25998;46.604;13.610;2023-03-01T19:20:40;2.30;99.90
40287;DHT22;25998;46.604;13.610;2023-03-01T19:23:52;2.40;99.90
40287;DHT22;25998;46.604;13.610;2023-03-01T19:27:03;2.40;99.90
40287;DHT22;25998;46.604;13.610;2023-03-01T19:30:14;2.30;99.90
40287;DHT22;25998;46.604;13.610;2023-03-01T19:33:28;2.20;99.90
40287;DHT22;25998;46.604;13.610;2023-03-01T19:36:40;2.10;99.90
40287;DHT22;25998;46.604;13.610;2023-03-01T19:39:52;2.10;99.90
40287;DHT22;25998;46.604;13.610;2023-03-01T19:43:02;2.20;99.90
40287;DHT22;25998;46.604;13.610;2023-03-01T19:46:14;2.20;99.90
40287;DHT22;25998;46.604;13.610;2023-03-01T19:49:25;2.10;99.90
40287;DHT22;25998;46.604;13.610;2023-03-01T19:52:37;2.10;99.90
40287;DHT22;25998;46.604;13.610;2023-03-01T19:55:48;2.20;99.90
40287;DHT22;25998;46.604;13.610;2023-03-01T19:59:02;2.10;99.90
40287;DHT22;25998;46.604;13.610;2023-03-01T20:02:13;2.10;99.90
40287;DHT22;25998;46.604;13.610;2023-03-01T20:05:24;2.10;99.90
40287;DHT22;25998;46.604;13.610;2023-03-01T20:08:35;2.00;99.90
40287;DHT22;25998;46.604;13.610;2023-03-01T20:11:46;1.90;99.90
40287;DHT22;25998;46.604;13.610;2023-03-01T20:14:57;1.80;99.90
40287;DHT22;25998;46.604;13.610;2023-03-01T20:18:09;1.80;99.90
40287;DHT22;25998;46.604;13.610;2023-03-01T20:21:22;1.90;99.90
40287;DHT22;25998;46.604;13.610;2023-03-01T20:24:33;2.00;99.90
40287;DHT22;25998;46.604;13.610;2023-03-01T20:27:44;2.00;99.90
40287;DHT22;25998;46.604;13.610;2023-03-01T20:31:08;1.80;99.90
40287;DHT22;25998;46.604;13.610;2023-03-01T20:34:20;1.80;99.90
40287;DHT22;25998;46.604;13.610;2023-03-01T20:37:31;1.80;99.90
40287;DHT22;25998;46.604;13.610;2023-03-01T20:40:42;1.80;99.90
40287;DHT22;25998;46.604;13.610;2023-03-01T20:43:52;1.90;99.90
40287;DHT22;25998;46.604;13.610;2023-03-01T20:47:05;2.00;99.90
40287;DHT22;25998;46.604;13.610;2023-03-01T20:50:17;1.90;99.90
40287;DHT22;25998;46.604;13.610;2023-03-01T20:53:28;1.90;99.90
40287;DHT22;25998;46.604;13.610;2023-03-01T20:56:39;1.90;99.90
40287;DHT22;25998;46.604;13.610;2023-03-01T20:59:50;1.90;99.90
40287;DHT22;25998;46.604;13.610;2023-03-01T21:03:01;2.00;99.90
40287;DHT22;25998;46.604;13.610;2023-03-01T21:06:13;2.10;99.90
40287;DHT22;25998;46.604;13.610;2023-03-01T21:09:24;2.20;99.90
40287;DHT22;25998;46.604;13.610;2023-03-01T21:12:35;2.20;99.90
40287;DHT22;25998;46.604;13.610;2023-03-01T21:15:59;2.20;99.90
40287;DHT22;25998;46.604;13.610;2023-03-01T21:19:11;2.10;99.90
40287;DHT22;25998;46.604;13.610;2023-03-01T21:22:21;2.00;99.90
40287;DHT22;25998;46.604;13.610;2023-03-01T21:25:32;2.10;99.90
40287;DHT22;25998;46.604;13.610;2023-03-01T21:28:44;2.10;99.90
40287;DHT22;25998;46.604;13.610;2023-03-01T21:31:55;1.90;99.90
40287;DHT22;25998;46.604;13.610;2023-03-01T21:35:06;1.90;99.90
40287;DHT22;25998;46.604;13.610;2023-03-01T21:38:17;2.00;99.90
40287;DHT22;25998;46.604;13.610;2023-03-01T21:41:31;1.90;99.90
40287;DHT22;25998;46.604;13.610;2023-03-01T21:44:42;1.90;99.90
40287;DHT22;25998;46.604;13.610;2023-03-01T21:47:53;2.10;99.90
40287;DHT22;25998;46.604;13.610;2023-03-01T21:51:05;2.20;99.90
40287;DHT22;25998;46.604;13.610;2023-03-01T21:54:18;2.20;99.90
40287;DHT22;25998;46.604;13.610;2023-03-01T21:57:29;2.10;99.90
40287;DHT22;25998;46.604;13.610;2023-03-01T22:00:40;2.20;99.90
40287;DHT22;25998;46.604;13.610;2023-03-01T22:03:50;2.20;99.90
40287;DHT22;25998;46.604;13.610;2023-03-01T22:07:01;2.20;99.90
40287;DHT22;25998;46.604;13.610;2023-03-01T22:10:13;2.00;99.90
40287;DHT22;25998;46.604;13.610;2023-03-01T22:13:24;1.80;99.90
40287;DHT22;25998;46.604;13.610;2023-03-01T22:16:36;1.80;99.90